Wednesday, June 20, 2018, 10:54 AM EDT
Back to Local

KORF, Norfolk International Airport

Location: Norfolk, VA, United States Lat: 36.9
Local Time: 10:54 AM EDT (14:54 GMT) Lon: -76.2
Time Zone: US/Eastern Elev: 26 ft

Show me the last for .
Show Coded

Time T Td Feel RH Dir Speed Gust Alt SLP Vis Weather Sky Remarks
2018-06-20 10:44 83 78 93 85 10° 8 - 29.87 - 10 BKN013 None
2018-06-20 09:51 82 77 91 84 Variable 6 - 29.87 29.87 10 FEW065 None
2018-06-20 08:51 82 77 91 84 30° 6 - 29.87 29.87 10 FEW010 None
2018-06-20 08:44 82 77 91 84 10° 5 - 29.87 - 10 SCT010 None
2018-06-20 07:51 80 78 89 93 360° 6 - 29.87 29.86 10 OVC012 6-hr Min Temp (8am): 77.0°F
6-hr Max Temp (8am): 80.1°F
2018-06-20 06:51 79 78 87 97 350° 6 - 29.86 29.85 9 OVC012 None
2018-06-20 06:48 79 79 87 100 360° 6 - 29.86 - 9 BKN010 OVC015 None
2018-06-20 06:41 79 78 87 97 350° 5 - 29.86 - 9 BKN009 OVC015 None
2018-06-20 06:25 78 77 85 96 350° 5 - 29.85 - 9 FEW009 OVC015 None
2018-06-20 06:16 79 77 86 93 350° 5 - 29.86 - 10 FEW009 OVC013 None
2018-06-20 05:51 78 77 85 96 360° 9 - 29.85 29.85 10 OVC011 None
2018-06-20 04:53 77 77 84 100 350° 5 - 29.83 - 10 BKN006 BKN010 None
2018-06-20 04:51 77 77 84 100 350° 5 - 29.83 29.83 10 SCT006 None
2018-06-20 04:37 77 77 84 100 330° 3 - 29.83 - 10 FEW005 None
2018-06-20 03:51 77 77 84 100 330° 5 - 29.83 29.83 10 CLR None
2018-06-20 02:51 78 76 84 93 310° 3 - 29.85 29.84 10 CLR None
2018-06-20 01:51 78 76 84 93 330° 5 - 29.85 29.84 10 CLR 6-hr Precip Total (2am): 0.00"
6-hr Min Temp (2am): 78.1°F
6-hr Max Temp (2am): 81.0°F
2018-06-20 00:51 78 75 84 90 340° 5 - 29.86 29.85 10 FEW110 24-hr Min Temp (1am): 78.1°F
24-hr Max Temp (1am): 100.9°F
2018-06-19 23:51 79 76 86 90 330° 7 - 29.86 29.86 10 CLR 1-hr Precip Total: Trace
2018-06-19 22:51 80 76 87 87 - Calm - 29.86 29.85 10 CLR 6-hr Precip Total (11pm): 0.00"
2018-06-19 21:51 79 77 86 93 330° 6 - 29.86 29.85 10 CLR 1-hr Precip Total: Trace
2018-06-19 20:51 80 77 88 90 350° 9 18 29.84 29.84 10 FEW120 None
2018-06-19 19:51 81 78 90 91 30° 17 23 29.83 29.83 8 FEW042 BKN060 Peak wind: 32 mph (28 kts) from 30° at 29 min
6-hr Min Temp (8pm): 81.0°F
6-hr Max Temp (8pm): 100.9°F
2018-06-19 18:51 93 74 104 54 110° 7 - 29.78 29.78 10 SCT070 None
2018-06-19 17:51 94 74 105 52 130° 9 - 29.76 29.76 10 FEW070 None
2018-06-19 16:51 96 75 109 51 50° 5 - 29.78 29.78 10 FEW065 FEW080 SCT100 None
2018-06-19 15:51 99 69 - 38 Variable 6 - 29.79 29.78 10 FEW065 FEW095 None
2018-06-19 14:51 98 70 107 40 Variable 3 - 29.80 29.80 10 CLR None
2018-06-19 13:51 97 71 106 43 320° 8 - 29.82 29.82 10 CLR 6-hr Min Temp (2pm): 82.9°F
6-hr Max Temp (2pm): 97.0°F
2018-06-19 12:51 95 72 105 47 Variable 6 - 29.84 29.83 10 CLR None
2018-06-19 11:51 95 73 106 49 Variable 5 - 29.85 29.85 10 CLR None

Support USWX by starting your Amazon purchase here.